Sumiha, Russia
Current Conditions -  °F | °C
As of 6:30 AM on Friday 19 Dec 2014 (Local Time) from USCC Reporting Station
Smoke Smoke  
Wind Chill:   Ceiling: 7000
Heat Index: 19°   Visibility: 1.8mi
Dew Point: 16°   Wind: 9mph
Humidity: 86%   Direction: 150°SSE
Pressure: 30.09"   Gusts: NA
Location:  55.23°N, 63.32°E
Report Text: USCC 190130Z 15004MPS 3000 BR FU BKN070 M07/M09 Q1019 27390045NOSIG RMK QFE744
Loading
Personal Weather Stations






























Interactive Weather Map New forecast layout! Learn more

10-Day Weather Forecast

Advertisements
Track Severe Weather on mobile